createdAt,value
2022-07-30T00:01:43.597Z,26.16
2022-07-30T00:04:10.594Z,26.13
2022-07-30T00:06:39.749Z,26.08
2022-07-30T00:09:06.574Z,26.06
2022-07-30T00:11:33.439Z,26.02
2022-07-30T00:14:00.642Z,25.99
2022-07-30T00:16:28.063Z,25.93
2022-07-30T00:18:54.898Z,25.90
2022-07-30T00:21:35.495Z,25.85
2022-07-30T00:24:06.125Z,25.80
2022-07-30T00:26:33.018Z,25.76
2022-07-30T00:29:00.161Z,25.73
2022-07-30T00:31:27.004Z,25.70
2022-07-30T00:33:53.800Z,25.66
2022-07-30T00:36:20.594Z,25.62
2022-07-30T00:38:47.409Z,25.58
2022-07-30T00:41:15.565Z,25.56
2022-07-30T00:43:43.693Z,25.54
2022-07-30T00:46:10.625Z,25.51
2022-07-30T00:48:37.469Z,25.49
2022-07-30T00:51:04.382Z,25.46
2022-07-30T00:53:31.227Z,25.45
2022-07-30T00:55:58.237Z,25.43
2022-07-30T00:58:25.161Z,25.40
2022-07-30T01:00:52.153Z,25.33
2022-07-30T01:03:19.082Z,25.29
2022-07-30T01:05:46.270Z,25.25
2022-07-30T01:08:13.327Z,25.20
2022-07-30T01:10:40.108Z,25.17
2022-07-30T01:13:07.937Z,25.16
2022-07-30T01:15:35.241Z,25.16
2022-07-30T01:18:05.367Z,25.15
2022-07-30T01:20:43.454Z,25.15
2022-07-30T01:23:28.359Z,25.13
2022-07-30T01:26:02.505Z,25.11
2022-07-30T01:28:37.985Z,25.06
2022-07-30T01:31:06.927Z,25.03
2022-07-30T01:33:45.301Z,25.00
2022-07-30T01:36:15.387Z,24.95
2022-07-30T01:38:45.501Z,24.93
2022-07-30T01:41:14.097Z,24.93
2022-07-30T01:43:43.198Z,24.91
2022-07-30T01:46:10.961Z,24.89
2022-07-30T01:48:40.950Z,24.90
2022-07-30T01:51:10.376Z,24.89
2022-07-30T01:53:40.526Z,24.88
2022-07-30T01:56:10.853Z,24.86
2022-07-30T01:58:40.062Z,24.84
2022-07-30T02:01:07.439Z,24.83
2022-07-30T02:03:35.404Z,24.86
2022-07-30T02:06:10.942Z,24.84
2022-07-30T02:08:44.513Z,24.84
2022-07-30T02:11:16.077Z,24.81
2022-07-30T02:13:53.093Z,24.79
2022-07-30T02:16:37.061Z,24.78
2022-07-30T02:19:11.757Z,24.77
2022-07-30T02:21:56.857Z,24.78
2022-07-30T02:24:28.722Z,24.79
2022-07-30T02:27:02.343Z,24.81
2022-07-30T02:29:32.406Z,24.82
2022-07-30T02:32:01.818Z,24.82
2022-07-30T02:34:29.849Z,24.83
2022-07-30T02:36:58.218Z,24.83
2022-07-30T02:39:27.073Z,24.86
2022-07-30T02:41:56.511Z,24.87
2022-07-30T02:44:25.338Z,24.88
2022-07-30T02:46:53.735Z,24.89
2022-07-30T02:49:22.581Z,24.87
2022-07-30T02:51:50.828Z,24.88
2022-07-30T02:54:20.487Z,24.88
2022-07-30T02:56:49.845Z,24.90
2022-07-30T02:59:19.227Z,24.90
2022-07-30T03:01:48.084Z,24.91
2022-07-30T03:04:19.023Z,24.91
2022-07-30T03:06:46.164Z,24.90
2022-07-30T03:09:13.098Z,24.90
2022-07-30T03:11:45.065Z,24.89
2022-07-30T03:14:11.876Z,24.86
2022-07-30T03:16:41.875Z,24.81
2022-07-30T03:19:11.434Z,24.74
2022-07-30T03:21:42.225Z,24.67
2022-07-30T03:24:11.895Z,24.60
2022-07-30T03:26:40.240Z,24.50
2022-07-30T03:29:08.701Z,24.45
2022-07-30T03:31:39.176Z,24.39
2022-07-30T03:34:07.759Z,24.31
2022-07-30T03:36:35.867Z,24.27
2022-07-30T03:39:05.183Z,24.22
2022-07-30T03:41:32.923Z,24.17
2022-07-30T03:44:00.382Z,24.14
2022-07-30T03:46:28.396Z,24.08
2022-07-30T03:48:57.103Z,24.07
2022-07-30T03:51:24.345Z,24.03
2022-07-30T03:53:51.887Z,24.00
2022-07-30T03:56:18.808Z,23.96
2022-07-30T03:58:45.741Z,23.93
2022-07-30T04:01:12.581Z,23.87
2022-07-30T04:03:39.530Z,23.85
2022-07-30T04:06:06.461Z,23.81
2022-07-30T04:08:33.281Z,23.78
2022-07-30T04:11:00.118Z,23.75
2022-07-30T04:13:27.021Z,23.72
2022-07-30T04:16:39.735Z,23.70
2022-07-30T04:18:56.265Z,23.64
2022-07-30T04:21:25.793Z,23.57
2022-07-30T04:24:03.704Z,23.45
2022-07-30T04:26:35.577Z,23.37
2022-07-30T04:29:04.838Z,23.30
2022-07-30T04:31:40.380Z,23.27
2022-07-30T04:34:08.557Z,23.25
2022-07-30T04:36:35.790Z,23.23
2022-07-30T04:39:03.051Z,23.23
2022-07-30T04:41:29.877Z,23.21
2022-07-30T04:44:14.910Z,23.16
2022-07-30T04:46:41.769Z,23.13
2022-07-30T04:49:09.435Z,23.10
2022-07-30T04:51:38.412Z,23.08
2022-07-30T04:54:15.674Z,23.08
2022-07-30T04:56:52.564Z,23.05
2022-07-30T04:59:24.293Z,23.04
2022-07-30T05:01:52.236Z,23.03
2022-07-30T05:04:20.411Z,23.03
2022-07-30T05:06:47.553Z,23.03
2022-07-30T05:09:15.924Z,23.02
2022-07-30T05:11:42.907Z,23.00
2022-07-30T05:14:09.684Z,22.96
2022-07-30T05:16:36.509Z,22.94
2022-07-30T05:19:07.636Z,22.91
2022-07-30T05:21:35.203Z,22.91
2022-07-30T05:24:02.109Z,22.89
2022-07-30T05:26:28.905Z,22.88
2022-07-30T05:28:56.918Z,22.88
2022-07-30T05:31:25.311Z,22.89
2022-07-30T05:33:52.652Z,22.88
2022-07-30T05:36:22.601Z,22.88
2022-07-30T05:38:49.598Z,22.86
2022-07-30T05:41:30.590Z,22.85
2022-07-30T05:43:59.288Z,22.84
2022-07-30T05:46:26.274Z,22.83
2022-07-30T05:48:53.506Z,22.85
2022-07-30T05:51:21.982Z,22.84
2022-07-30T05:53:49.193Z,22.85
2022-07-30T05:56:16.048Z,22.88
2022-07-30T05:58:43.118Z,22.88
2022-07-30T06:01:09.978Z,22.89
2022-07-30T06:03:37.052Z,22.94
2022-07-30T06:06:05.246Z,22.96
2022-07-30T06:08:32.374Z,23.01
2022-07-30T06:10:59.179Z,23.05
2022-07-30T06:13:26.163Z,23.09
2022-07-30T06:15:53.116Z,23.14
2022-07-30T06:18:20.040Z,23.18
2022-07-30T06:20:51.862Z,23.21
2022-07-30T06:23:19.265Z,23.28
2022-07-30T06:25:48.085Z,23.32
2022-07-30T06:31:07.019Z,23.36
2022-07-30T06:33:33.958Z,23.40
2022-07-30T06:36:00.805Z,23.43
2022-07-30T06:38:28.285Z,23.48
2022-07-30T06:40:59.204Z,23.53
2022-07-30T06:43:28.959Z,23.60
2022-07-30T06:45:56.581Z,23.67
2022-07-30T06:48:23.493Z,23.71
2022-07-30T06:50:50.470Z,23.77
2022-07-30T06:53:17.302Z,23.81
2022-07-30T06:55:44.316Z,23.86
2022-07-30T06:58:11.112Z,23.92
2022-07-30T07:00:37.902Z,23.95
2022-07-30T07:03:07.577Z,23.98
2022-07-30T07:05:38.449Z,23.97
2022-07-30T07:08:05.429Z,23.97
2022-07-30T07:10:32.487Z,23.96
2022-07-30T07:13:00.618Z,23.97
2022-07-30T07:15:36.478Z,23.98
2022-07-30T07:18:05.694Z,24.03
2022-07-30T07:20:34.098Z,24.08
2022-07-30T07:23:06.554Z,24.16
2022-07-30T07:25:36.462Z,24.22
2022-07-30T07:28:11.591Z,24.26
2022-07-30T07:30:41.556Z,24.29
2022-07-30T07:33:08.884Z,24.31
2022-07-30T07:35:48.902Z,24.33
2022-07-30T07:38:18.302Z,24.34
2022-07-30T07:40:45.833Z,24.37
2022-07-30T07:43:12.717Z,24.40
2022-07-30T07:45:39.852Z,24.43
2022-07-30T07:48:06.939Z,24.47
2022-07-30T07:50:33.879Z,24.61
2022-07-30T07:53:00.871Z,24.89
2022-07-30T07:55:27.793Z,25.27
2022-07-30T07:57:54.602Z,25.67
2022-07-30T08:00:21.744Z,25.93
2022-07-30T08:02:49.572Z,25.99
2022-07-30T08:05:17.202Z,26.02
2022-07-30T08:07:45.897Z,26.10
2022-07-30T08:10:15.015Z,26.35
2022-07-30T08:12:42.539Z,26.50
2022-07-30T08:15:10.591Z,26.54
2022-07-30T08:17:46.064Z,26.72
2022-07-30T08:20:15.534Z,26.84
2022-07-30T08:22:42.863Z,26.98
2022-07-30T08:25:10.159Z,27.26
2022-07-30T08:27:36.991Z,27.47
2022-07-30T08:30:09.290Z,27.54
2022-07-30T08:32:37.429Z,27.47
2022-07-30T08:35:06.031Z,27.55
2022-07-30T08:37:34.239Z,27.68
2022-07-30T08:40:01.065Z,27.67
2022-07-30T08:42:28.939Z,27.71
2022-07-30T08:44:56.691Z,27.80
2022-07-30T08:47:34.364Z,27.90
2022-07-30T08:50:05.161Z,28.05
2022-07-30T08:52:38.606Z,28.23
2022-07-30T08:55:06.172Z,28.34
2022-07-30T08:57:35.238Z,28.31
2022-07-30T09:00:05.292Z,28.26
2022-07-30T09:02:32.500Z,28.17
2022-07-30T09:04:59.388Z,28.12
2022-07-30T09:07:26.320Z,28.13
2022-07-30T09:09:53.174Z,28.04
2022-07-30T09:12:39.241Z,27.94
2022-07-30T09:15:10.165Z,27.85
2022-07-30T09:17:57.742Z,27.78
2022-07-30T09:20:28.703Z,27.69
2022-07-30T09:22:59.797Z,27.59
2022-07-30T09:25:45.150Z,27.55
2022-07-30T09:28:16.279Z,27.57
2022-07-30T09:30:55.488Z,27.60
2022-07-30T09:33:37.637Z,27.65
2022-07-30T09:36:12.666Z,27.68
2022-07-30T09:38:51.503Z,27.68
2022-07-30T09:41:41.553Z,27.66
2022-07-30T09:44:08.419Z,27.64
2022-07-30T09:46:47.953Z,27.68
2022-07-30T09:49:35.309Z,27.75
2022-07-30T09:52:02.256Z,27.85
2022-07-30T09:54:51.308Z,27.94
2022-07-30T09:57:25.995Z,27.99
2022-07-30T09:59:56.783Z,28.05
2022-07-30T10:02:33.736Z,28.14
2022-07-30T10:05:14.392Z,28.20
2022-07-30T10:07:53.372Z,28.28
2022-07-30T10:10:26.080Z,28.34
2022-07-30T10:13:04.286Z,28.36
2022-07-30T10:15:36.889Z,28.36
2022-07-30T10:18:06.106Z,28.37
2022-07-30T10:20:34.969Z,28.39
2022-07-30T10:23:08.051Z,28.44
2022-07-30T10:25:48.946Z,28.47
2022-07-30T10:28:18.059Z,28.53
2022-07-30T10:30:45.286Z,28.58
2022-07-30T10:33:35.077Z,28.65
2022-07-30T10:35:59.921Z,28.70
2022-07-30T10:38:34.439Z,28.75
2022-07-30T10:41:54.109Z,28.75
2022-07-30T10:45:04.181Z,28.78
2022-07-30T10:47:33.520Z,28.73
2022-07-30T10:50:22.090Z,28.71
2022-07-30T10:52:52.470Z,28.72
2022-07-30T10:55:38.530Z,28.80
2022-07-30T10:58:11.427Z,28.87
2022-07-30T11:00:53.591Z,28.96
2022-07-30T11:03:22.083Z,29.00
2022-07-30T11:06:15.004Z,29.08
2022-07-30T11:08:45.347Z,29.13
2022-07-30T11:12:15.791Z,29.18
2022-07-30T11:14:08.028Z,29.23
2022-07-30T11:16:34.834Z,29.29
2022-07-30T11:19:55.787Z,29.34
2022-07-30T11:22:28.876Z,29.40
2022-07-30T11:24:57.829Z,29.43
2022-07-30T11:27:41.358Z,29.46
2022-07-30T11:30:17.889Z,29.48
2022-07-30T11:32:48.383Z,29.53
2022-07-30T11:35:34.759Z,29.61
2022-07-30T11:38:12.905Z,29.71
2022-07-30T11:41:02.571Z,29.84
2022-07-30T11:43:37.005Z,29.96
2022-07-30T11:46:28.715Z,30.11
2022-07-30T11:49:08.416Z,30.22
2022-07-30T11:51:42.182Z,30.36
2022-07-30T11:54:12.682Z,30.42
2022-07-30T11:57:04.343Z,30.48
2022-07-30T11:59:31.479Z,30.50
2022-07-30T12:02:01.607Z,30.47
2022-07-30T12:04:28.929Z,30.49
2022-07-30T12:06:55.731Z,30.53
2022-07-30T12:09:28.629Z,30.56
2022-07-30T12:11:56.602Z,30.61
2022-07-30T12:14:23.468Z,30.69
2022-07-30T12:16:53.460Z,30.80
2022-07-30T12:19:20.380Z,30.91
2022-07-30T12:21:50.999Z,31.03
2022-07-30T12:24:26.193Z,31.11
2022-07-30T12:26:53.186Z,31.19
2022-07-30T12:29:20.182Z,31.22
2022-07-30T12:31:47.591Z,31.21
2022-07-30T12:34:25.867Z,31.24
2022-07-30T12:36:53.659Z,31.30
2022-07-30T12:39:26.142Z,31.40
2022-07-30T12:41:58.371Z,31.45
2022-07-30T12:44:41.158Z,31.48
2022-07-30T12:47:31.409Z,31.53
2022-07-30T12:50:01.716Z,31.63
2022-07-30T12:52:32.070Z,31.73
2022-07-30T12:55:10.350Z,31.84
2022-07-30T12:58:07.152Z,31.91
2022-07-30T13:00:52.590Z,32.01
2022-07-30T13:03:28.626Z,32.07
2022-07-30T13:05:56.961Z,32.01
2022-07-30T13:08:52.055Z,31.93
2022-07-30T13:11:25.055Z,31.90
2022-07-30T13:13:52.516Z,31.84
2022-07-30T13:16:20.767Z,31.75
2022-07-30T13:18:47.817Z,31.68
2022-07-30T13:21:14.706Z,31.63
2022-07-30T13:23:42.350Z,31.66
2022-07-30T13:26:10.314Z,31.74
2022-07-30T13:28:37.267Z,31.85
2022-07-30T13:31:05.318Z,31.93
2022-07-30T13:33:32.108Z,31.95
2022-07-30T13:35:59.187Z,31.99
2022-07-30T13:38:26.093Z,32.05
2022-07-30T13:40:53.444Z,32.14
2022-07-30T13:43:21.213Z,32.25
2022-07-30T13:45:49.793Z,32.39
2022-07-30T13:48:16.718Z,32.50
2022-07-30T13:50:43.826Z,32.61
2022-07-30T13:53:10.847Z,32.74
2022-07-30T13:55:39.250Z,32.85
2022-07-30T13:58:06.823Z,32.93
2022-07-30T14:00:36.636Z,33.04
2022-07-30T14:03:07.241Z,33.13
2022-07-30T14:05:36.087Z,33.16
2022-07-30T14:08:10.831Z,33.10
2022-07-30T14:10:39.701Z,33.01
2022-07-30T14:13:08.122Z,32.95
2022-07-30T14:15:35.054Z,32.95
2022-07-30T14:18:02.147Z,32.96
2022-07-30T14:20:29.353Z,32.95
2022-07-30T14:22:56.759Z,32.98
2022-07-30T14:25:23.708Z,33.05
2022-07-30T14:27:50.520Z,33.14
2022-07-30T14:30:17.311Z,33.11
2022-07-30T14:32:44.947Z,32.98
2022-07-30T14:35:11.950Z,32.85
2022-07-30T14:37:40.678Z,32.79
2022-07-30T14:40:11.342Z,32.75
2022-07-30T14:42:40.033Z,32.75
2022-07-30T14:45:10.740Z,32.77
2022-07-30T14:47:38.047Z,32.79
2022-07-30T14:50:07.866Z,32.85
2022-07-30T14:52:35.022Z,32.91
2022-07-30T14:55:03.693Z,32.95
2022-07-30T14:57:30.877Z,32.98
2022-07-30T14:59:57.670Z,33.03
2022-07-30T15:02:24.600Z,33.10
2022-07-30T15:04:51.611Z,33.15
2022-07-30T15:07:18.671Z,33.10
2022-07-30T15:09:45.597Z,33.06
2022-07-30T15:12:13.294Z,33.02
2022-07-30T15:14:49.751Z,33.02
2022-07-30T15:17:16.628Z,33.03
2022-07-30T15:19:49.934Z,33.01
2022-07-30T15:22:19.743Z,32.95
2022-07-30T15:24:46.835Z,32.82
2022-07-30T15:27:13.649Z,32.68
2022-07-30T15:29:40.457Z,32.53
2022-07-30T15:32:07.703Z,32.40
2022-07-30T15:34:34.909Z,32.25
2022-07-30T15:37:03.233Z,32.14
2022-07-30T15:39:32.755Z,32.03
2022-07-30T15:42:03.643Z,31.93
2022-07-30T15:44:31.194Z,31.83
2022-07-30T15:46:58.905Z,31.73
2022-07-30T15:49:26.134Z,31.64
2022-07-30T15:51:53.068Z,31.57
2022-07-30T15:54:24.621Z,31.53
2022-07-30T15:56:53.831Z,31.51
2022-07-30T15:59:21.319Z,31.54
2022-07-30T16:01:49.153Z,31.56
2022-07-30T16:04:19.271Z,31.62
2022-07-30T16:06:48.259Z,31.67
2022-07-30T16:09:16.631Z,31.70
2022-07-30T16:11:43.557Z,31.76
2022-07-30T16:14:10.774Z,31.83
2022-07-30T16:16:37.581Z,31.87
2022-07-30T16:19:04.443Z,31.91
2022-07-30T16:21:31.241Z,31.94
2022-07-30T16:23:58.073Z,31.94
2022-07-30T16:26:24.858Z,31.91
2022-07-30T16:28:51.645Z,31.84
2022-07-30T16:31:18.538Z,31.79
2022-07-30T16:33:45.801Z,31.73
2022-07-30T16:36:14.188Z,31.66
2022-07-30T16:38:41.173Z,31.61
2022-07-30T16:41:13.228Z,31.53
2022-07-30T16:43:40.928Z,31.45
2022-07-30T16:46:07.772Z,31.36
2022-07-30T16:48:34.684Z,31.29
2022-07-30T16:51:01.585Z,31.23
2022-07-30T16:53:28.497Z,31.19
2022-07-30T16:55:56.892Z,31.13
2022-07-30T16:58:30.772Z,31.11
2022-07-30T17:00:58.099Z,30.98
2022-07-30T17:03:28.077Z,31.00
2022-07-30T17:05:54.915Z,30.99
2022-07-30T17:08:25.076Z,30.99
2022-07-30T17:10:53.692Z,30.98
2022-07-30T17:13:21.083Z,30.98
2022-07-30T17:15:48.610Z,30.99
2022-07-30T17:18:16.174Z,31.01
2022-07-30T17:20:43.288Z,31.02
2022-07-30T17:23:10.078Z,31.02
2022-07-30T17:25:36.886Z,30.98
2022-07-30T17:28:04.058Z,30.95
2022-07-30T17:30:31.035Z,30.91
2022-07-30T17:32:57.845Z,30.90
2022-07-30T17:35:24.766Z,30.92
2022-07-30T17:37:51.799Z,30.93
2022-07-30T17:40:28.341Z,30.94
2022-07-30T17:43:03.053Z,30.97
2022-07-30T17:45:34.632Z,30.99
2022-07-30T17:48:02.051Z,30.97
2022-07-30T17:50:30.214Z,30.96
2022-07-30T17:52:57.062Z,30.95
2022-07-30T17:55:25.109Z,30.94
2022-07-30T17:57:51.914Z,30.93
2022-07-30T18:00:18.761Z,30.93
2022-07-30T18:02:45.602Z,30.92
2022-07-30T18:05:15.427Z,30.91
2022-07-30T18:07:43.574Z,30.90
2022-07-30T18:10:11.344Z,30.89
2022-07-30T18:12:38.491Z,30.89
2022-07-30T18:15:06.369Z,30.88
2022-07-30T18:17:33.226Z,30.87
2022-07-30T18:20:00.087Z,30.85
2022-07-30T18:22:29.414Z,30.82
2022-07-30T18:24:57.335Z,30.81
2022-07-30T18:27:24.158Z,30.77
2022-07-30T18:29:51.031Z,30.75
2022-07-30T18:32:18.048Z,30.74
2022-07-30T18:34:44.938Z,30.71
2022-07-30T18:37:11.729Z,30.70
2022-07-30T18:39:38.540Z,30.66
2022-07-30T18:42:06.006Z,30.63
2022-07-30T18:44:33.150Z,30.60
2022-07-30T18:47:00.069Z,30.58
2022-07-30T18:49:36.607Z,30.53
2022-07-30T18:52:05.455Z,30.48
2022-07-30T18:54:32.587Z,30.45
2022-07-30T18:56:59.384Z,30.41
2022-07-30T18:59:26.203Z,30.36
2022-07-30T19:01:53.680Z,30.30
2022-07-30T19:04:20.535Z,30.22
2022-07-30T19:06:47.720Z,30.17
2022-07-30T19:09:17.599Z,30.13
2022-07-30T19:11:46.068Z,30.06
2022-07-30T19:14:13.959Z,30.00
2022-07-30T19:16:44.781Z,29.93
2022-07-30T19:19:13.647Z,29.86
2022-07-30T19:21:41.564Z,29.83
2022-07-30T19:24:10.011Z,29.77
2022-07-30T19:26:39.240Z,29.74
2022-07-30T19:29:07.806Z,29.67
2022-07-30T19:31:35.433Z,29.64
2022-07-30T19:34:02.257Z,29.61
2022-07-30T19:36:30.124Z,29.57
2022-07-30T19:38:58.860Z,29.54
2022-07-30T19:41:27.561Z,29.49
2022-07-30T19:43:57.965Z,29.46
2022-07-30T19:46:25.402Z,29.41
2022-07-30T19:48:52.419Z,29.38
2022-07-30T19:51:20.523Z,29.33
2022-07-30T19:53:47.980Z,29.30
2022-07-30T19:56:14.777Z,29.26
2022-07-30T19:58:41.667Z,29.24
2022-07-30T20:01:09.797Z,29.21
2022-07-30T20:03:38.677Z,29.17
2022-07-30T20:06:08.131Z,29.13
2022-07-30T20:08:36.457Z,29.08
2022-07-30T20:11:06.846Z,29.02
2022-07-30T20:13:44.810Z,28.95
2022-07-30T20:16:15.802Z,28.89
2022-07-30T20:18:43.529Z,28.81
2022-07-30T20:21:15.071Z,28.70
2022-07-30T20:23:42.778Z,28.58
2022-07-30T20:26:13.560Z,28.48
2022-07-30T20:28:47.880Z,28.38
2022-07-30T20:31:19.777Z,28.31
2022-07-30T20:33:50.198Z,28.27
2022-07-30T20:36:34.021Z,28.23
2022-07-30T20:39:01.066Z,28.19
2022-07-30T20:41:28.096Z,28.15
2022-07-30T20:43:55.424Z,28.12
2022-07-30T20:46:22.972Z,28.08
2022-07-30T20:48:51.489Z,28.03
2022-07-30T20:51:18.421Z,27.98
2022-07-30T20:53:45.705Z,27.92
2022-07-30T20:56:13.645Z,27.87
2022-07-30T20:58:46.030Z,27.85
2022-07-30T21:01:17.877Z,27.80
2022-07-30T21:03:47.737Z,27.79
2022-07-30T21:06:15.069Z,27.78
2022-07-30T21:08:41.946Z,27.74
2022-07-30T21:11:09.690Z,27.72
2022-07-30T21:13:36.858Z,27.72
2022-07-30T21:16:15.870Z,27.72
2022-07-30T21:18:48.195Z,27.71
2022-07-30T21:21:32.918Z,27.70
2022-07-30T21:24:11.406Z,27.68
2022-07-30T21:26:40.311Z,27.66
2022-07-30T21:29:07.468Z,27.62
2022-07-30T21:31:59.011Z,27.58
2022-07-30T21:34:21.332Z,27.53
2022-07-30T21:36:53.324Z,27.50
2022-07-30T21:39:20.116Z,27.46
2022-07-30T21:41:55.937Z,27.42
2022-07-30T21:44:22.775Z,27.38
2022-07-30T21:46:50.750Z,27.36
2022-07-30T21:49:17.643Z,27.34
2022-07-30T21:51:44.648Z,27.32
2022-07-30T21:54:11.479Z,27.29
2022-07-30T21:56:41.673Z,27.30
2022-07-30T21:59:09.856Z,27.29
2022-07-30T22:01:38.974Z,27.28
2022-07-30T22:04:14.354Z,27.29
2022-07-30T22:06:43.451Z,27.25
2022-07-30T22:09:18.804Z,27.25
2022-07-30T22:12:01.617Z,27.24
2022-07-30T22:14:29.233Z,27.24
2022-07-30T22:16:57.247Z,27.21
2022-07-30T22:19:25.987Z,27.17
2022-07-30T22:21:53.378Z,27.13
2022-07-30T22:24:28.838Z,27.08
2022-07-30T22:27:01.756Z,27.04
2022-07-30T22:29:38.115Z,27.01
2022-07-30T22:32:06.624Z,27.00
2022-07-30T22:34:34.890Z,26.97
2022-07-30T22:37:01.699Z,26.92
2022-07-30T22:39:31.798Z,26.87
2022-07-30T22:42:00.781Z,26.82
2022-07-30T22:44:28.186Z,26.79
2022-07-30T22:46:56.448Z,26.76
2022-07-30T22:49:34.853Z,26.72
2022-07-30T22:52:20.071Z,26.69
2022-07-30T22:54:50.782Z,26.66
2022-07-30T22:57:22.780Z,26.64
2022-07-30T22:59:58.277Z,26.61
2022-07-30T23:02:27.811Z,26.57
2022-07-30T23:04:56.385Z,26.53
2022-07-30T23:07:23.526Z,26.46
2022-07-30T23:10:03.218Z,26.40
2022-07-30T23:12:35.535Z,26.33
2022-07-30T23:15:02.998Z,26.27
2022-07-30T23:17:29.803Z,26.23
2022-07-30T23:19:56.573Z,26.20
2022-07-30T23:22:23.396Z,26.18
2022-07-30T23:24:51.364Z,26.17
2022-07-30T23:27:18.200Z,26.15
2022-07-30T23:29:45.011Z,26.13
2022-07-30T23:32:11.831Z,26.10
2022-07-30T23:34:38.660Z,26.08
2022-07-30T23:37:06.161Z,26.07
2022-07-30T23:39:32.982Z,26.04
2022-07-30T23:41:59.773Z,26.04
2022-07-30T23:44:26.556Z,26.02
2022-07-30T23:46:53.358Z,25.99
2022-07-30T23:49:22.212Z,25.97
2022-07-30T23:51:49.282Z,25.94
2022-07-30T23:54:16.101Z,25.89
2022-07-30T23:56:42.899Z,25.87
2022-07-30T23:59:09.725Z,25.82
